Time;durP1;ratioP1;P1;durP2;ratioP2;P2;SDS_P1;SDS_P2;PMS_P1;PMS_P2;Temp;Humidity;BMP_temperature;BMP_pressure;BME280_temperature;BME280_humidity;BME280_pressure;Samples;Min_cycle;Max_cycle;Signal;HPM_P1;HPM_P2
2022/02/02 00:00:28;;;;;;;8.45;4.63;;;5.30;99.90;;;;;;5064102;28;20032;-69
2022/02/02 00:02:58;;;;;;;6.95;4.78;;;5.30;99.90;;;;;;5047121;28;20033;-69
2022/02/02 00:06:12;;;;;;;7.47;4.60;;;5.30;99.90;;;;;;5054356;28;20025;-70
2022/02/02 00:08:32;;;;;;;6.80;4.78;;;5.30;99.90;;;;;;5060277;28;20150;-70
2022/02/02 00:13:58;;;;;;;5.40;4.25;;;5.40;99.90;;;;;;5048975;28;20033;-70
2022/02/02 00:19:17;;;;;;;8.57;4.15;;;5.40;99.90;;;;;;5058523;28;20091;-71
2022/02/02 00:21:47;;;;;;;5.20;3.65;;;5.50;99.90;;;;;;5045489;28;20081;-71
2022/02/02 00:24:31;;;;;;;5.63;3.75;;;5.50;99.90;;;;;;5042477;28;20052;-70
2022/02/02 00:27:00;;;;;;;6.40;3.67;;;5.50;99.90;;;;;;5047711;28;20037;-70
2022/02/02 00:29:33;;;;;;;5.63;3.72;;;5.50;99.90;;;;;;5052345;28;20345;-70
2022/02/02 00:32:09;;;;;;;7.32;4.25;;;5.50;99.90;;;;;;5046175;28;20025;-70
2022/02/02 00:34:34;;;;;;;7.18;4.18;;;5.50;99.90;;;;;;5037308;28;20108;-70
2022/02/02 00:37:00;;;;;;;5.55;4.07;;;5.50;99.90;;;;;;5046417;28;20678;-71
2022/02/02 00:39:28;;;;;;;5.72;3.80;;;5.50;99.90;;;;;;5051929;28;20658;-69
2022/02/02 00:41:56;;;;;;;5.63;3.83;;;5.50;99.90;;;;;;5057493;28;20143;-71
2022/02/02 00:44:23;;;;;;;4.97;3.67;;;5.50;99.90;;;;;;5043951;28;20025;-70
2022/02/02 00:46:49;;;;;;;5.03;3.55;;;5.50;99.90;;;;;;5046042;28;20024;-70
2022/02/02 00:49:14;;;;;;;5.30;3.67;;;5.40;99.90;;;;;;5043906;28;20100;-71
2022/02/02 00:51:45;;;;;;;5.65;3.35;;;5.50;99.90;;;;;;5057897;28;20040;-70
2022/02/02 00:54:16;;;;;;;4.40;3.00;;;5.40;99.90;;;;;;5055480;28;20031;-70
2022/02/02 00:56:42;;;;;;;4.13;3.08;;;5.40;99.90;;;;;;5048959;28;20047;-69
2022/02/02 00:59:08;;;;;;;4.68;3.05;;;5.50;99.90;;;;;;5056605;28;20032;-69
2022/02/02 01:01:34;;;;;;;4.78;3.20;;;5.50;99.90;;;;;;5049538;28;20124;-70
2022/02/02 01:04:00;;;;;;;6.18;3.28;;;5.50;99.90;;;;;;5048809;28;20034;-70
2022/02/02 01:06:28;;;;;;;6.97;3.55;;;5.50;99.90;;;;;;5047242;28;20105;-70
2022/02/02 01:09:10;;;;;;;4.88;3.15;;;5.50;99.90;;;;;;5033050;28;20365;-69
2022/02/02 01:22:13;;;;;;;12.82;3.65;;;5.60;99.90;;;;;;5052650;28;20032;-69
2022/02/02 01:30:10;;;;;;;8.50;4.00;;;5.60;99.90;;;;;;5057205;28;20068;-71
2022/02/02 01:32:37;;;;;;;9.45;4.72;;;5.60;99.90;;;;;;5044022;28;20025;-69
2022/02/02 01:35:06;;;;;;;9.57;4.13;;;5.60;99.90;;;;;;5049597;28;20049;-69
2022/02/02 01:37:33;;;;;;;15.10;4.30;;;5.60;99.90;;;;;;5041778;28;20025;-70
2022/02/02 01:40:05;;;;;;;10.43;4.78;;;5.60;99.90;;;;;;5053351;28;20122;-71
2022/02/02 01:42:39;;;;;;;8.15;4.70;;;5.60;99.90;;;;;;5046361;28;20092;-70
2022/02/02 01:45:18;;;;;;;11.65;4.32;;;5.60;99.90;;;;;;5047650;28;20020;-71
2022/02/02 01:47:58;;;;;;;9.98;4.00;;;5.60;99.90;;;;;;5045097;28;20100;-69
2022/02/02 01:50:26;;;;;;;12.30;4.07;;;5.60;99.90;;;;;;5052528;28;20112;-70
2022/02/02 01:55:39;;;;;;;6.47;3.83;;;5.60;99.90;;;;;;5046945;28;20060;-70
2022/02/02 02:00:35;;;;;;;11.00;3.88;;;5.60;99.90;;;;;;5051447;28;20089;-70
2022/02/02 02:03:02;;;;;;;13.07;4.13;;;5.60;99.90;;;;;;5044430;28;20035;-70
2022/02/02 02:05:28;;;;;;;9.32;4.00;;;5.60;99.90;;;;;;5035685;28;20017;-70
2022/02/02 02:07:54;;;;;;;18.15;4.35;;;5.60;99.90;;;;;;5063104;28;20028;-69
2022/02/02 02:10:22;;;;;;;14.02;4.10;;;5.60;99.90;;;;;;5049463;28;20060;-70
2022/02/02 02:12:59;;;;;;;10.13;3.50;;;5.60;99.90;;;;;;5052939;28;20032;-70
2022/02/02 02:15:29;;;;;;;14.13;3.90;;;5.60;99.90;;;;;;5064787;28;20040;-71
2022/02/02 02:17:55;;;;;;;14.70;4.05;;;5.60;99.90;;;;;;5056140;28;20036;-71
2022/02/02 02:20:21;;;;;;;14.70;3.70;;;5.60;99.90;;;;;;5049356;28;20037;-70
2022/02/02 02:22:47;;;;;;;17.52;3.63;;;5.60;99.90;;;;;;5055209;28;20021;-70
2022/02/02 02:25:20;;;;;;;14.63;3.53;;;5.60;99.90;;;;;;5047634;28;20029;-70
2022/02/02 02:27:46;;;;;;;21.52;4.07;;;5.60;99.90;;;;;;5048225;28;20028;-70
2022/02/02 02:30:22;;;;;;;14.93;3.40;;;5.60;99.90;;;;;;5047157;28;20033;-70
2022/02/02 02:36:08;;;;;;;14.88;3.67;;;5.60;99.90;;;;;;5050305;28;20036;-70
2022/02/02 02:57:25;;;;;;;12.13;2.80;;;5.50;99.90;;;;;;5069486;28;20517;-69
2022/02/02 03:35:19;;;;;;;12.20;2.33;;;5.50;99.90;;;;;;5040424;28;20048;-69
2022/02/02 04:04:15;;;;;;;10.77;3.05;;;5.70;99.90;;;;;;5050572;28;20098;-70
2022/02/02 04:06:59;;;;;;;10.68;3.33;;;5.70;99.90;;;;;;5057909;28;20060;-69
2022/02/02 04:09:26;;;;;;;13.00;3.58;;;5.70;99.90;;;;;;5038951;28;20032;-69
2022/02/02 04:55:51;;;;;;;19.58;3.78;;;5.30;99.90;;;;;;5048820;28;20047;-70
2022/02/02 04:58:20;;;;;;;16.90;3.65;;;5.30;99.90;;;;;;5041967;28;20063;-69
2022/02/02 05:05:57;;;;;;;21.80;3.40;;;5.20;99.90;;;;;;5044473;28;20167;-70
2022/02/02 05:08:35;;;;;;;20.33;3.70;;;5.20;99.90;;;;;;5061556;28;20013;-69
2022/02/02 05:21:43;;;;;;;19.40;3.65;;;5.30;99.90;;;;;;5070080;28;20020;-69
2022/02/02 05:53:33;;;;;;;15.65;4.00;;;5.30;99.90;;;;;;5069643;28;20056;-69
2022/02/02 05:56:02;;;;;;;19.85;4.10;;;5.30;99.90;;;;;;5069700;28;20032;-69
2022/02/02 05:58:30;;;;;;;13.50;3.50;;;5.30;99.90;;;;;;5068293;28;20078;-69
2022/02/02 06:00:58;;;;;;;17.08;4.47;;;5.30;99.90;;;;;;5070169;28;20052;-69
2022/02/02 06:03:46;;;;;;;18.55;3.78;;;5.30;99.90;;;;;;5060574;28;20025;-70
2022/02/02 06:06:12;;;;;;;16.05;4.10;;;5.30;99.90;;;;;;5054276;28;20032;-70
2022/02/02 06:08:45;;;;;;;13.32;4.43;;;5.30;99.90;;;;;;5063234;28;20020;-69
2022/02/02 06:11:13;;;;;;;11.18;3.85;;;5.30;99.90;;;;;;5068983;28;20465;-69
2022/02/02 06:13:49;;;;;;;11.98;4.15;;;5.30;99.90;;;;;;5071993;28;20430;-69
2022/02/02 06:16:15;;;;;;;22.67;4.75;;;5.40;99.90;;;;;;5074125;28;20094;-68
2022/02/02 06:18:41;;;;;;;19.83;4.43;;;5.30;99.90;;;;;;5070444;28;20114;-68
2022/02/02 06:21:09;;;;;;;22.10;4.28;;;5.30;99.90;;;;;;5078090;28;20480;-68
2022/02/02 06:23:47;;;;;;;24.92;4.97;;;5.30;99.90;;;;;;5082932;28;20035;-70
2022/02/02 06:26:14;;;;;;;23.35;4.18;;;5.30;99.90;;;;;;5069967;28;20103;-67
2022/02/02 06:28:43;;;;;;;25.05;4.47;;;5.30;99.90;;;;;;5065887;28;20019;-69
2022/02/02 06:31:14;;;;;;;16.02;4.35;;;5.30;99.90;;;;;;5061699;28;20036;-68
2022/02/02 06:33:41;;;;;;;18.30;4.50;;;5.20;99.90;;;;;;5063949;28;20082;-69
2022/02/02 06:36:11;;;;;;;21.17;4.47;;;5.30;99.90;;;;;;5058823;28;20028;-69
2022/02/02 06:38:38;;;;;;;24.33;3.53;;;5.20;99.90;;;;;;5069917;28;20028;-70
2022/02/02 06:41:06;;;;;;;13.25;2.97;;;5.30;99.90;;;;;;5069425;28;20028;-70
2022/02/02 06:43:31;;;;;;;22.42;3.67;;;5.20;99.90;;;;;;5068756;28;20024;-69
2022/02/02 06:46:00;;;;;;;16.85;3.25;;;5.20;99.90;;;;;;5065684;28;20040;-67
2022/02/02 06:48:29;;;;;;;18.73;3.90;;;5.20;99.90;;;;;;5072656;28;20476;-68
2022/02/02 06:51:04;;;;;;;18.75;2.95;;;5.20;99.90;;;;;;5071938;28;20686;-70
2022/02/02 06:53:42;;;;;;;18.67;3.58;;;5.20;99.90;;;;;;5072706;28;20024;-68
2022/02/02 06:56:40;;;;;;;19.27;3.83;;;5.20;99.90;;;;;;5060812;28;20037;-69
2022/02/02 07:05:08;;;;;;;22.30;3.90;;;5.30;99.90;;;;;;5065387;28;20119;-69
2022/02/02 07:08:08;;;;;;;15.30;3.50;;;5.40;99.90;;;;;;5065369;28;20023;-68
2022/02/02 07:11:06;;;;;;;18.00;3.72;;;5.30;99.90;;;;;;5069206;28;20127;-68
2022/02/02 07:19:39;;;;;;;16.23;3.58;;;5.40;99.90;;;;;;4988100;28;20042;-66
2022/02/02 07:22:38;;;;;;;16.55;3.75;;;5.40;99.90;;;;;;5033926;28;20052;-68
2022/02/02 07:25:34;;;;;;;21.20;4.18;;;5.50;99.90;;;;;;5066024;28;20035;-68
2022/02/02 07:31:17;;;;;;;27.98;3.92;;;5.50;99.90;;;;;;5072560;28;20055;-68
2022/02/02 07:33:31;;;;;;;28.97;4.40;;;5.50;99.90;;;;;;5064425;28;20511;-69
2022/02/02 07:36:30;;;;;;;18.15;4.13;;;5.50;99.90;;;;;;5057491;28;20025;-68
2022/02/02 07:39:01;;;;;;;23.10;3.63;;;5.50;99.90;;;;;;5050839;28;20059;-68
2022/02/02 07:41:35;;;;;;;24.40;4.15;;;5.60;99.90;;;;;;5069710;28;20032;-69
2022/02/02 07:44:11;;;;;;;15.50;4.55;;;5.60;99.90;;;;;;5072117;28;20020;-68
2022/02/02 07:46:38;;;;;;;18.85;4.10;;;5.60;99.90;;;;;;5071418;28;20476;-68
2022/02/02 07:49:08;;;;;;;20.90;3.85;;;5.60;99.90;;;;;;5062660;28;20025;-69
2022/02/02 07:51:36;;;;;;;24.08;3.90;;;5.60;99.90;;;;;;5060817;28;20424;-69
2022/02/02 07:54:04;;;;;;;21.25;4.38;;;5.70;99.90;;;;;;5068987;28;20033;-68
2022/02/02 07:56:40;;;;;;;15.15;3.97;;;5.70;99.90;;;;;;5070521;28;20731;-68
2022/02/02 07:59:25;;;;;;;14.38;3.45;;;5.70;99.90;;;;;;5071530;28;20033;-68
2022/02/02 08:01:52;;;;;;;22.23;3.67;;;5.70;99.90;;;;;;5065382;28;20028;-68
2022/02/02 08:04:21;;;;;;;26.50;3.90;;;5.70;99.90;;;;;;5071620;28;20017;-68
2022/02/02 08:06:53;;;;;;;18.75;3.45;;;5.80;99.90;;;;;;5071671;28;20025;-69
2022/02/02 08:09:45;;;;;;;24.50;4.18;;;5.80;99.90;;;;;;5070037;28;20074;-68
2022/02/02 08:12:13;;;;;;;16.98;3.00;;;5.80;99.90;;;;;;5060077;28;20037;-68
2022/02/02 08:14:41;;;;;;;15.52;3.30;;;5.90;99.90;;;;;;5071834;28;20035;-68
2022/02/02 08:17:06;;;;;;;25.00;3.30;;;5.90;99.90;;;;;;5070543;28;20027;-69
2022/02/02 08:19:32;;;;;;;19.38;3.83;;;5.90;99.90;;;;;;5070004;28;20039;-69
2022/02/02 08:21:58;;;;;;;21.65;3.60;;;5.90;99.90;;;;;;5070505;28;20063;-69
2022/02/02 08:24:26;;;;;;;19.05;3.63;;;5.90;99.90;;;;;;5071361;28;20068;-68
2022/02/02 08:26:51;;;;;;;22.30;4.18;;;5.90;99.90;;;;;;5071120;28;20074;-68
2022/02/02 08:29:17;;;;;;;19.55;3.17;;;6.00;99.90;;;;;;5068249;28;20021;-68
2022/02/02 08:31:43;;;;;;;19.90;3.17;;;6.00;99.90;;;;;;5050859;28;20056;-69
2022/02/02 08:34:10;;;;;;;21.25;3.47;;;6.00;99.90;;;;;;5064260;28;20040;-68
2022/02/02 08:36:37;;;;;;;14.05;2.88;;;6.00;99.90;;;;;;5067244;28;20044;-68
2022/02/02 08:39:19;;;;;;;19.50;3.42;;;6.00;99.90;;;;;;5067713;28;20458;-68
2022/02/02 08:41:51;;;;;;;19.15;3.47;;;6.10;99.90;;;;;;5061271;28;20070;-68
2022/02/02 08:44:25;;;;;;;18.38;3.88;;;6.10;99.90;;;;;;5069729;28;20024;-67
2022/02/02 08:47:02;;;;;;;22.42;4.07;;;6.10;99.90;;;;;;5069998;28;20484;-68
2022/02/02 08:49:31;;;;;;;15.65;2.95;;;6.10;99.90;;;;;;5057293;28;20025;-68
2022/02/02 08:51:57;;;;;;;19.38;3.40;;;6.10;99.90;;;;;;5067932;28;20051;-68
2022/02/02 09:02:04;;;;;;;21.40;3.22;;;6.10;99.90;;;;;;5069382;28;20116;-68
2022/02/02 09:07:14;;;;;;;17.98;4.28;;;6.10;99.90;;;;;;5065421;28;20027;-68
2022/02/02 09:10:06;;;;;;;23.13;4.13;;;6.20;99.90;;;;;;5063951;28;20111;-68
2022/02/02 09:31:49;;;;;;;28.63;4.45;;;6.20;99.90;;;;;;5062620;28;20391;-69
2022/02/02 09:34:17;;;;;;;17.88;3.30;;;6.20;99.90;;;;;;5052609;28;20020;-68
2022/02/02 09:36:44;;;;;;;18.27;3.60;;;6.30;99.90;;;;;;5070303;28;20426;-69
2022/02/02 09:39:18;;;;;;;20.80;3.35;;;6.30;99.90;;;;;;5068265;28;20016;-69
2022/02/02 09:41:47;;;;;;;20.58;3.05;;;6.30;99.90;;;;;;5052623;28;20029;-69
2022/02/02 09:44:17;;;;;;;22.77;3.80;;;6.30;99.90;;;;;;5052698;28;20028;-69
2022/02/02 09:47:01;;;;;;;19.88;3.30;;;6.30;99.90;;;;;;5070454;28;20021;-69
2022/02/02 09:52:00;;;;;;;15.27;3.30;;;6.30;99.90;;;;;;5066846;28;20036;-69
2022/02/02 09:54:34;;;;;;;14.93;3.08;;;6.30;99.90;;;;;;5062723;28;20050;-69
2022/02/02 10:05:16;;;;;;;23.05;3.97;;;6.40;99.90;;;;;;5069545;28;20078;-69
2022/02/02 10:10:49;;;;;;;16.73;3.60;;;6.40;99.90;;;;;;5070237;28;20025;-69
2022/02/02 10:13:35;;;;;;;16.60;3.38;;;6.50;99.90;;;;;;5056438;28;20549;-69
2022/02/02 10:16:01;;;;;;;17.73;3.08;;;6.50;99.90;;;;;;5064073;28;20021;-69
2022/02/02 10:18:31;;;;;;;12.10;2.78;;;6.50;99.90;;;;;;5069175;28;20024;-68
2022/02/02 10:20:57;;;;;;;20.23;3.28;;;6.60;99.90;;;;;;5069861;28;20032;-69
2022/02/02 10:23:28;;;;;;;16.77;3.38;;;6.70;99.90;;;;;;5070233;28;20102;-68
2022/02/02 10:25:59;;;;;;;17.38;3.28;;;6.70;99.90;;;;;;5052117;28;20806;-69
2022/02/02 10:28:31;;;;;;;16.73;3.35;;;6.70;99.90;;;;;;5053168;28;20389;-69
2022/02/02 10:31:07;;;;;;;16.77;2.72;;;6.70;99.90;;;;;;5056604;28;20575;-69
2022/02/02 10:33:35;;;;;;;14.85;3.55;;;6.70;99.90;;;;;;5069383;28;20055;-68
2022/02/02 10:36:10;;;;;;;24.00;3.90;;;6.80;99.90;;;;;;5069975;28;20491;-68
2022/02/02 10:38:46;;;;;;;15.13;3.00;;;6.80;99.90;;;;;;5069406;28;20047;-69
2022/02/02 10:43:47;;;;;;;17.98;3.33;;;6.90;99.90;;;;;;5070062;28;20024;-68
2022/02/02 10:46:37;;;;;;;12.45;2.58;;;7.00;99.90;;;;;;5070285;28;20031;-68
2022/02/02 10:49:19;;;;;;;12.90;3.40;;;7.00;99.90;;;;;;5060351;28;20028;-69
2022/02/02 10:51:53;;;;;;;;;;;7.00;99.90;;;;;;5070641;28;20020;-68
2022/02/02 10:56:57;;;;;;;15.73;3.38;;;6.90;99.90;;;;;;5073150;28;20093;-69
2022/02/02 10:59:48;;;;;;;17.60;2.97;;;6.90;99.90;;;;;;5073435;28;20380;-69
2022/02/02 11:07:24;;;;;;;19.15;6.45;;;7.20;99.90;;;;;;5072225;28;20035;-69
2022/02/02 11:09:50;;;;;;;22.73;7.05;;;7.30;99.90;;;;;;5119244;22;20458;-89
2022/02/02 11:12:19;;;;;;;30.48;12.60;;;7.30;99.90;;;;;;5096283;28;20089;-89
2022/02/02 11:15:05;;;;;;;10.65;3.65;;;7.30;99.90;;;;;;5097013;28;20044;-88
2022/02/02 11:17:52;;;;;;;9.57;3.10;;;7.20;99.90;;;;;;5095723;28;20506;-89
2022/02/02 11:20:18;;;;;;;12.20;6.75;;;7.00;99.90;;;;;;5079423;28;20028;-88
2022/02/02 11:22:52;;;;;;;11.15;3.45;;;6.90;99.90;;;;;;5094434;28;20024;-87
2022/02/02 11:25:17;;;;;;;17.10;3.25;;;6.70;99.90;;;;;;5075755;28;20032;-88
2022/02/02 11:27:49;;;;;;;45.90;23.65;;;6.60;99.90;;;;;;5094789;28;20099;-88
2022/02/02 11:30:23;;;;;;;13.60;4.13;;;6.50;99.90;;;;;;5075926;28;20020;-88
2022/02/02 11:32:56;;;;;;;13.65;3.25;;;6.40;99.90;;;;;;5075192;28;20116;-87
2022/02/02 11:38:08;;;;;;;13.32;2.83;;;6.40;99.90;;;;;;5092996;28;20097;-89
2022/02/02 11:40:42;;;;;;;9.40;2.40;;;6.30;99.90;;;;;;5071351;28;20016;-88
2022/02/02 11:43:12;;;;;;;13.68;2.53;;;6.30;99.90;;;;;;5063485;28;20039;-88
2022/02/02 11:45:45;;;;;;;15.05;3.05;;;6.30;99.90;;;;;;5055986;28;20048;-87
2022/02/02 11:48:20;;;;;;;14.25;3.00;;;6.30;99.90;;;;;;5055658;28;20039;-88
2022/02/02 11:50:53;;;;;;;19.48;3.42;;;6.40;99.90;;;;;;5060814;28;20054;-88
2022/02/02 11:53:53;;;;;;;14.43;3.38;;;6.50;99.90;;;;;;5093524;28;20034;-88
2022/02/02 11:56:20;;;;;;;16.08;3.72;;;6.60;99.90;;;;;;5076785;28;20028;-88
2022/02/02 11:58:46;;;;;;;15.05;3.08;;;6.70;99.90;;;;;;5077207;28;20032;-88
2022/02/02 12:01:26;;;;;;;16.10;3.30;;;6.80;99.90;;;;;;5075000;28;20031;-88
2022/02/02 12:04:13;;;;;;;16.35;3.65;;;7.00;99.90;;;;;;5075011;28;20127;-87
2022/02/02 12:06:59;;;;;;;21.67;3.20;;;7.20;99.90;;;;;;5076565;28;20028;-88
2022/02/02 12:09:47;;;;;;;18.58;2.95;;;7.40;99.90;;;;;;5073134;28;20480;-88
2022/02/02 12:47:22;;;;;;;16.25;2.67;;;8.00;99.90;;;;;;5096682;28;20035;-88
2022/02/02 12:58:12;;;;;;;12.60;2.70;;;7.90;99.90;;;;;;5098291;28;20024;-88
2022/02/02 13:03:06;;;;;;;10.38;2.40;;;8.10;99.90;;;;;;5097855;28;20101;-87
2022/02/02 13:05:34;;;;;;;15.82;3.35;;;8.30;99.90;;;;;;5079683;28;20024;-89
2022/02/02 13:08:00;;;;;;;11.65;2.38;;;8.50;99.90;;;;;;5078758;28;20085;-88
2022/02/02 13:10:28;;;;;;;7.25;2.53;;;8.60;99.90;;;;;;5073526;28;20035;-86
2022/02/02 13:13:14;;;;;;;17.90;4.00;;;8.60;99.90;;;;;;5077345;28;20035;-88
2022/02/02 13:15:48;;;;;;;11.93;1.90;;;8.60;99.90;;;;;;5080534;28;20012;-86
2022/02/02 13:26:08;;;;;;;5.70;1.92;;;8.70;99.90;;;;;;5113936;28;20036;-89
2022/02/02 13:28:54;;;;;;;12.13;1.77;;;8.70;99.90;;;;;;5090905;28;20028;-87
2022/02/02 13:31:46;;;;;;;9.38;2.15;;;8.70;99.90;;;;;;5102896;28;20052;-90
2022/02/02 13:37:36;;;;;;;11.05;2.60;;;8.60;99.90;;;;;;5091561;28;19957;-87
2022/02/02 13:43:02;;;;;;;11.23;2.15;;;8.50;99.90;;;;;;5081476;28;20445;-88
2022/02/02 14:04:22;;;;;;;8.38;2.00;;;8.80;99.90;;;;;;5090648;28;20029;-88
2022/02/02 14:33:24;;;;;;;7.38;2.03;;;9.90;99.90;;;;;;5099110;28;20071;-89
2022/02/02 14:35:53;;;;;;;10.00;2.13;;;9.90;99.90;;;;;;5094823;28;20055;-90
2022/02/02 14:38:19;;;;;;;11.85;2.45;;;9.80;99.90;;;;;;5077462;28;20051;-88
2022/02/02 14:43:29;;;;;;;9.07;2.08;;;9.40;99.90;;;;;;5094730;28;20047;-89
2022/02/02 14:45:58;;;;;;;8.65;1.60;;;9.20;99.90;;;;;;5094749;28;20085;-88
2022/02/02 14:48:29;;;;;;;8.85;2.10;;;9.00;99.90;;;;;;5076311;28;20028;-89
2022/02/02 14:51:15;;;;;;;7.97;1.85;;;8.80;99.90;;;;;;5094979;28;20016;-88
2022/02/02 15:29:06;;;;;;;7.78;1.77;;;8.00;99.90;;;;;;5093778;28;20035;-88
2022/02/02 15:31:33;;;;;;;7.88;1.90;;;7.90;99.90;;;;;;5075576;28;20024;-88
2022/02/02 15:34:00;;;;;;;12.95;1.98;;;7.90;99.90;;;;;;5074712;28;20028;-89
2022/02/02 15:39:11;;;;;;;9.85;2.25;;;7.90;99.90;;;;;;5091490;28;20097;-87
2022/02/02 15:41:50;;;;;;;14.13;2.42;;;7.80;99.90;;;;;;5063966;28;20444;-88
2022/02/02 15:55:42;;;;;;;11.80;3.17;;;7.80;99.90;;;;;;5092657;28;20119;-86
2022/02/02 15:58:11;;;;;;;13.45;2.83;;;7.80;99.90;;;;;;5085459;28;20056;-87
2022/02/02 16:03:13;;;;;;;13.00;2.30;;;7.70;99.90;;;;;;5093197;28;20074;-90
2022/02/02 16:08:07;;;;;;;8.63;2.25;;;7.70;99.90;;;;;;5085566;28;20027;-88
2022/02/02 16:10:45;;;;;;;11.70;2.13;;;7.60;99.90;;;;;;5087565;28;20089;-89
2022/02/02 16:13:27;;;;;;;10.43;2.35;;;7.60;99.90;;;;;;5072270;28;20396;-89
2022/02/02 16:16:02;;;;;;;10.50;2.17;;;7.50;99.90;;;;;;5070947;28;20047;-89
2022/02/02 16:35:01;;;;;;;17.13;2.78;;;7.00;99.90;;;;;;5092093;28;20032;-90
2022/02/02 16:37:34;;;;;;;10.85;2.78;;;6.90;99.90;;;;;;5072317;28;20027;-90
2022/02/02 16:40:04;;;;;;;11.82;2.35;;;6.80;99.90;;;;;;5073698;28;20024;-90
2022/02/02 16:45:16;;;;;;;14.55;3.42;;;6.80;99.90;;;;;;5080951;28;20149;-90
2022/02/02 16:47:41;;;;;;;15.95;3.80;;;6.70;99.90;;;;;;5057440;28;20020;-90
2022/02/02 16:50:10;;;;;;;11.65;4.45;;;6.70;99.90;;;;;;5079631;28;20203;-89
2022/02/02 16:52:36;;;;;;;15.00;2.88;;;6.70;99.90;;;;;;5063932;28;20567;-89
2022/02/02 16:55:09;;;;;;;8.95;2.95;;;6.70;99.90;;;;;;5054237;28;20409;-88
2022/02/02 16:57:46;;;;;;;18.25;6.75;;;6.70;99.90;;;;;;5066320;28;20488;-90
2022/02/02 17:30:23;;;;;;;18.08;5.75;;;6.40;99.90;;;;;;5111450;28;20035;-69
2022/02/02 17:32:55;;;;;;;16.50;5.20;;;6.30;99.90;;;;;;5111305;28;20030;-70
2022/02/02 17:41:14;;;;;;;21.02;5.43;;;6.30;99.90;;;;;;5028499;28;20575;-70
2022/02/02 18:13:35;;;;;;;15.13;5.07;;;6.50;99.90;;;;;;5097470;28;20114;-69
2022/02/02 18:18:49;;;;;;;15.85;5.85;;;6.40;99.90;;;;;;5099111;28;20614;-70
2022/02/02 18:21:00;;;;;;;12.98;5.20;;;6.40;99.90;;;;;;5104296;28;22121;-70
2022/02/02 18:23:33;;;;;;;8.18;4.65;;;6.40;99.90;;;;;;5110004;28;20088;-70
2022/02/02 18:28:45;;;;;;;14.32;5.40;;;6.40;99.90;;;;;;5108886;27;20386;-70
2022/02/02 18:33:57;;;;;;;12.00;4.82;;;6.30;99.90;;;;;;5104824;27;20316;-70
2022/02/02 19:00:58;;;;;;;13.40;6.05;;;6.30;99.90;;;;;;5108991;28;20101;-71
2022/02/02 20:08:17;;;;;;;11.38;6.95;;;6.50;99.90;;;;;;5105544;28;20047;-69
2022/02/02 20:11:01;;;;;;;13.70;7.43;;;6.50;99.90;;;;;;5106290;28;20039;-69
2022/02/02 20:13:27;;;;;;;15.13;8.45;;;6.50;99.90;;;;;;5108320;28;20028;-69
2022/02/02 20:15:53;;;;;;;12.48;7.85;;;6.50;99.90;;;;;;5109032;28;20361;-69
2022/02/02 20:18:19;;;;;;;12.65;7.45;;;6.50;99.90;;;;;;5106800;28;20062;-69
2022/02/02 20:20:45;;;;;;;14.50;8.00;;;6.50;99.90;;;;;;5081326;28;20728;-70
2022/02/02 20:23:13;;;;;;;13.45;6.45;;;6.50;99.90;;;;;;5098388;28;20011;-69
2022/02/02 20:25:41;;;;;;;14.77;7.38;;;6.50;99.90;;;;;;5098625;28;20110;-68
2022/02/02 20:28:09;;;;;;;10.57;6.70;;;6.50;99.90;;;;;;5097104;28;20103;-69
2022/02/02 20:30:37;;;;;;;12.13;6.35;;;6.40;99.90;;;;;;5108246;28;20019;-70
2022/02/02 20:33:04;;;;;;;12.23;6.13;;;6.40;99.90;;;;;;5108568;28;20028;-69
2022/02/02 20:35:30;;;;;;;13.98;6.55;;;6.40;99.90;;;;;;5089680;28;20114;-68
2022/02/02 20:37:56;;;;;;;14.77;7.68;;;6.40;99.90;;;;;;5094555;28;20472;-70
2022/02/02 20:40:23;;;;;;;13.57;7.25;;;6.40;99.90;;;;;;5099856;28;20704;-69
2022/02/02 21:14:05;;;;;;;14.50;6.80;;;6.10;99.90;;;;;;5110801;28;20111;-68
2022/02/02 21:16:36;;;;;;;10.27;7.57;;;6.10;99.90;;;;;;5111092;28;20064;-68
2022/02/02 21:19:05;;;;;;;17.70;9.02;;;6.10;99.90;;;;;;5109206;28;20028;-70
2022/02/02 21:21:37;;;;;;;16.30;8.45;;;6.10;99.90;;;;;;5097110;28;20028;-70
2022/02/02 21:26:59;;;;;;;15.02;8.27;;;6.00;99.90;;;;;;5110974;28;20119;-70
2022/02/02 21:29:25;;;;;;;14.10;8.40;;;6.00;99.90;;;;;;5111268;28;20020;-68
2022/02/02 21:31:52;;;;;;;17.85;8.73;;;6.00;99.90;;;;;;5111399;28;20036;-69
2022/02/02 21:34:20;;;;;;;20.38;10.50;;;6.00;99.90;;;;;;5105338;28;20024;-69
2022/02/02 21:36:45;;;;;;;15.25;9.10;;;6.00;99.90;;;;;;5099871;28;20020;-70
2022/02/02 21:39:20;;;;;;;17.67;10.77;;;6.00;99.90;;;;;;5103113;28;20464;-68
2022/02/02 21:41:46;;;;;;;19.80;12.05;;;6.00;99.90;;;;;;5101352;28;20023;-68
2022/02/02 21:44:13;;;;;;;24.65;12.52;;;6.00;99.90;;;;;;5107274;28;20028;-69
2022/02/02 21:46:41;;;;;;;19.38;11.52;;;5.90;99.90;;;;;;5110965;28;20492;-70
2022/02/02 21:49:09;;;;;;;21.35;11.77;;;5.90;99.90;;;;;;5107925;28;20015;-69
2022/02/02 21:51:39;;;;;;;17.83;11.15;;;5.90;99.90;;;;;;5102338;28;20024;-69
2022/02/02 21:54:04;;;;;;;19.80;10.60;;;5.90;99.90;;;;;;5096022;28;20051;-70
2022/02/02 21:56:30;;;;;;;18.10;10.13;;;5.80;99.90;;;;;;5102244;28;20055;-69
2022/02/02 21:58:56;;;;;;;15.73;10.73;;;5.80;99.90;;;;;;5093087;28;20090;-69
2022/02/02 22:01:24;;;;;;;17.13;9.43;;;5.80;99.90;;;;;;5099206;28;20019;-68
2022/02/02 22:03:50;;;;;;;17.30;9.63;;;5.80;99.90;;;;;;5110559;28;20483;-69
2022/02/02 22:06:16;;;;;;;15.43;9.40;;;5.80;99.90;;;;;;5109962;28;20051;-70
2022/02/02 22:08:42;;;;;;;13.30;8.52;;;5.70;99.90;;;;;;5109931;28;20023;-70
2022/02/02 22:11:07;;;;;;;15.55;8.65;;;5.70;99.90;;;;;;5108935;28;20497;-70
2022/02/02 22:13:40;;;;;;;14.65;8.40;;;5.70;99.90;;;;;;5110402;28;20039;-69
2022/02/02 22:16:10;;;;;;;12.10;7.65;;;5.70;99.90;;;;;;5110811;28;20512;-69
2022/02/02 22:18:37;;;;;;;14.77;8.65;;;5.70;99.90;;;;;;5108911;28;20122;-69
2022/02/02 22:21:03;;;;;;;16.60;7.82;;;5.70;99.90;;;;;;5095409;28;20067;-69
2022/02/02 22:23:29;;;;;;;12.18;7.47;;;5.70;99.90;;;;;;5108314;28;20031;-69
2022/02/02 22:25:57;;;;;;;16.60;8.63;;;5.70;99.90;;;;;;5109078;28;20024;-70
2022/02/02 22:28:23;;;;;;;16.70;8.77;;;5.70;99.90;;;;;;5109072;28;20023;-70
2022/02/02 22:30:49;;;;;;;12.05;7.95;;;5.70;99.90;;;;;;5108999;28;20161;-69
2022/02/02 22:33:14;;;;;;;12.23;7.93;;;5.70;99.90;;;;;;5109749;28;20059;-69
2022/02/02 22:35:40;;;;;;;13.30;7.68;;;5.70;99.90;;;;;;5090642;28;20057;-70
2022/02/02 22:38:05;;;;;;;13.50;8.23;;;5.70;99.90;;;;;;5090413;28;20032;-68
2022/02/02 22:40:31;;;;;;;13.38;8.20;;;5.70;99.90;;;;;;5108900;28;20101;-69
2022/02/02 22:42:57;;;;;;;19.25;9.38;;;5.70;99.90;;;;;;5109300;28;20058;-70
2022/02/02 22:45:22;;;;;;;14.38;8.55;;;5.70;99.90;;;;;;5108664;28;20015;-69
2022/02/02 22:47:49;;;;;;;13.85;8.35;;;5.70;99.90;;;;;;5111174;28;20032;-69
2022/02/02 22:50:19;;;;;;;22.25;9.77;;;5.70;99.90;;;;;;5106204;28;20080;-69
2022/02/02 22:52:48;;;;;;;14.48;8.50;;;5.70;99.90;;;;;;5099740;28;20417;-69
2022/02/02 22:55:16;;;;;;;18.25;8.80;;;5.70;99.90;;;;;;5112002;28;20051;-69
2022/02/02 22:57:42;;;;;;;13.50;8.38;;;5.70;99.90;;;;;;5111677;28;20027;-69
2022/02/02 23:00:15;;;;;;;14.68;8.65;;;5.60;99.90;;;;;;5104902;28;20023;-69
2022/02/02 23:02:59;;;;;;;13.68;8.43;;;5.60;99.90;;;;;;5098242;28;20468;-69
2022/02/02 23:05:34;;;;;;;14.75;9.18;;;5.70;99.90;;;;;;5113045;28;20027;-69
2022/02/02 23:08:01;;;;;;;14.02;8.40;;;5.70;99.90;;;;;;5112006;28;20023;-68
2022/02/02 23:12:54;;;;;;;16.33;9.77;;;5.70;99.90;;;;;;5100803;28;20047;-70
2022/02/02 23:15:26;;;;;;;18.00;10.48;;;5.70;99.90;;;;;;5081539;28;20019;-70
2022/02/02 23:17:53;;;;;;;17.30;10.10;;;5.70;99.90;;;;;;5079811;28;20020;-70
2022/02/02 23:20:18;;;;;;;19.13;9.98;;;5.70;99.90;;;;;;5074744;28;20232;-70
2022/02/02 23:22:45;;;;;;;22.25;10.73;;;5.70;99.90;;;;;;5096838;28;20142;-70
2022/02/02 23:25:15;;;;;;;18.52;9.93;;;5.70;99.90;;;;;;5108257;28;20031;-70
2022/02/02 23:27:45;;;;;;;18.70;10.35;;;5.70;99.90;;;;;;5105327;28;20024;-70
2022/02/02 23:30:15;;;;;;;23.20;10.70;;;5.70;99.90;;;;;;5093345;28;20111;-70
2022/02/02 23:32:41;;;;;;;22.98;10.93;;;5.70;99.90;;;;;;5073678;28;20165;-71
2022/02/02 23:35:09;;;;;;;18.08;10.07;;;5.70;99.90;;;;;;5092797;28;20099;-70
2022/02/02 23:37:37;;;;;;;17.73;10.52;;;5.70;99.90;;;;;;5107236;28;20356;-71
2022/02/02 23:40:03;;;;;;;20.33;10.57;;;5.70;99.90;;;;;;5102632;27;20039;-70
2022/02/02 23:42:34;;;;;;;19.63;9.60;;;5.70;99.90;;;;;;5095763;28;20076;-70
2022/02/02 23:44:59;;;;;;;23.98;9.98;;;5.70;99.90;;;;;;5103789;28;20410;-70
2022/02/02 23:47:29;;;;;;;16.90;10.43;;;5.70;99.90;;;;;;5099235;28;20012;-70
2022/02/02 23:49:58;;;;;;;17.40;9.30;;;5.70;99.90;;;;;;5097799;28;20019;-71
2022/02/02 23:52:30;;;;;;;18.13;8.80;;;5.70;99.90;;;;;;5102943;28;20028;-70
2022/02/02 23:54:57;;;;;;;17.70;8.75;;;5.70;99.90;;;;;;5083113;28;20027;-71
2022/02/02 23:58:14;;;;;;;17.92;8.93;;;5.70;99.90;;;;;;5109990;28;20032;-70
